Time;durP1;ratioP1;P1;durP2;ratioP2;P2;SDS_P1;SDS_P2;PMS_P1;PMS_P2;Temp;Humidity;BMP_temperature;BMP_pressure;BME280_temperature;BME280_humidity;BME280_pressure;Samples;Min_cycle;Max_cycle;Signal;HPM_P1;HPM_P2
2021/12/07 00:01:37;;;;;;;10.00;6.38;;;;;;;3.30;100.00;97975.31;5063579;28;20332;-66
2021/12/07 00:04:04;;;;;;;11.68;6.47;;;;;;;3.38;100.00;97973.56;5063680;28;20032;-66
2021/12/07 00:06:29;;;;;;;10.07;6.18;;;;;;;3.40;100.00;97977.03;5063877;28;20025;-66
2021/12/07 00:08:56;;;;;;;11.85;5.82;;;;;;;3.46;99.77;97974.41;5063475;28;20070;-66
2021/12/07 00:11:25;;;;;;;10.30;6.53;;;;;;;3.47;100.00;97977.88;5055460;28;20024;-66
2021/12/07 00:13:51;;;;;;;9.88;5.70;;;;;;;3.49;100.00;97982.22;5063434;28;20029;-66
2021/12/07 00:16:19;;;;;;;9.63;5.55;;;;;;;3.50;100.00;97970.06;5063742;28;20370;-66
2021/12/07 00:18:45;;;;;;;8.40;4.78;;;;;;;3.49;100.00;97968.34;5063235;28;20080;-66
2021/12/07 00:21:11;;;;;;;11.13;6.25;;;;;;;3.57;100.00;97975.25;5064410;28;20013;-66
2021/12/07 00:23:37;;;;;;;11.02;5.05;;;;;;;3.62;100.00;97978.72;5067673;28;20021;-66
2021/12/07 00:26:05;;;;;;;17.98;6.05;;;;;;;3.62;100.00;97981.31;5067454;28;20365;-66
2021/12/07 00:28:30;;;;;;;8.70;5.05;;;;;;;3.61;100.00;97971.75;5067783;28;20028;-66
2021/12/07 00:31:03;;;;;;;9.18;5.30;;;;;;;3.68;100.00;97976.09;5067256;28;20017;-66
2021/12/07 00:33:36;;;;;;;8.90;4.97;;;;;;;3.64;100.00;97966.53;5060712;28;20051;-66
2021/12/07 00:36:03;;;;;;;8.95;4.38;;;;;;;3.62;100.00;97973.50;5067309;28;20040;-66
2021/12/07 00:38:29;;;;;;;9.40;4.72;;;;;;;3.69;100.00;97974.34;5067375;28;20070;-66
2021/12/07 00:40:57;;;;;;;9.20;4.82;;;;;;;3.69;100.00;97977.81;5067387;28;20052;-66
2021/12/07 00:43:25;;;;;;;9.45;4.95;;;;;;;3.75;100.00;97985.63;5067133;28;20040;-66
2021/12/07 00:45:51;;;;;;;7.22;4.55;;;;;;;3.75;100.00;97989.94;5067515;28;20317;-66
2021/12/07 00:48:17;;;;;;;12.85;5.30;;;;;;;3.82;100.00;97987.31;5067581;28;20052;-66
2021/12/07 00:50:45;;;;;;;8.73;4.70;;;;;;;3.84;99.96;97985.59;5067431;28;20324;-66
2021/12/07 00:53:11;;;;;;;9.38;5.28;;;;;;;3.80;100.00;97999.47;5067335;28;20131;-66
2021/12/07 00:55:42;;;;;;;8.15;4.85;;;;;;;3.76;100.00;97992.53;5067059;28;20323;-66
2021/12/07 00:58:18;;;;;;;9.35;4.35;;;;;;;3.77;100.00;97998.63;5066916;28;20194;-66
2021/12/07 01:00:46;;;;;;;7.32;4.10;;;;;;;3.80;100.00;97996.84;5066873;28;20076;-66
2021/12/07 01:03:12;;;;;;;10.60;4.75;;;;;;;3.80;100.00;98004.66;5066787;28;20343;-66
2021/12/07 01:05:39;;;;;;;8.32;4.60;;;;;;;3.77;100.00;98004.66;5066899;28;20020;-66
2021/12/07 01:26:59;;;;;;;7.03;4.07;;;;;;;3.95;100.00;98024.56;5066371;28;20340;-66
2021/12/07 01:29:27;;;;;;;8.93;4.38;;;;;;;3.95;100.00;98043.66;5066354;28;20013;-66
2021/12/07 01:47:44;;;;;;;3.83;2.35;;;;;;;3.94;99.71;98052.38;5066359;28;20025;-66
2021/12/07 01:53:09;;;;;;;3.05;1.13;;;;;;;3.76;99.65;98033.31;5065981;28;20031;-66
2021/12/07 02:00:50;;;;;;;2.22;1.40;;;;;;;3.68;99.43;98054.16;5072102;28;20047;-66
2021/12/07 02:03:16;;;;;;;2.33;1.23;;;;;;;3.70;100.00;98051.56;5065543;28;20024;-66
2021/12/07 02:05:41;;;;;;;3.17;1.40;;;;;;;3.73;99.76;98060.22;5065791;28;20073;-66
2021/12/07 02:08:07;;;;;;;3.90;1.38;;;;;;;3.69;100.00;98058.47;5065716;28;20041;-66
2021/12/07 02:10:33;;;;;;;3.90;1.50;;;;;;;3.70;100.00;98060.22;5065874;28;20028;-66
2021/12/07 02:13:18;;;;;;;3.63;1.38;;;;;;;3.74;100.00;98061.09;5065786;28;20036;-66
2021/12/07 02:15:44;;;;;;;3.17;1.60;;;;;;;3.72;100.00;98060.22;5065703;28;20027;-66
2021/12/07 02:18:09;;;;;;;3.20;1.23;;;;;;;3.73;100.00;98049.78;5065411;28;20288;-66
2021/12/07 02:20:34;;;;;;;6.95;1.23;;;;;;;3.80;100.00;98064.53;5065342;28;20055;-66
2021/12/07 02:23:00;;;;;;;3.45;1.50;;;;;;;3.83;100.00;98077.53;5065319;28;20036;-66
2021/12/07 02:25:26;;;;;;;4.57;1.20;;;;;;;3.84;100.00;98075.81;5065613;28;20056;-66
2021/12/07 02:27:53;;;;;;;3.60;1.10;;;;;;;3.79;99.46;98070.59;5065204;28;20021;-66
2021/12/07 02:30:21;;;;;;;2.30;1.10;;;;;;;3.71;99.08;98074.97;5065542;28;20309;-66
2021/12/07 02:32:47;;;;;;;3.90;1.17;;;;;;;3.70;99.49;98073.22;5065086;28;20328;-66
2021/12/07 02:35:21;;;;;;;6.28;1.40;;;;;;;3.73;99.07;98070.63;5065520;28;20099;-66
2021/12/07 02:37:46;;;;;;;4.68;1.20;;;;;;;3.78;98.96;98084.50;5065277;28;20024;-66
2021/12/07 02:40:12;;;;;;;5.15;1.08;;;;;;;3.82;98.48;98085.34;5065104;28;20070;-66
2021/12/07 02:42:37;;;;;;;2.40;1.10;;;;;;;3.80;97.98;98081.91;5065063;28;20033;-66
2021/12/07 02:45:05;;;;;;;3.85;0.82;;;;;;;3.73;97.83;98077.53;5063844;28;20031;-66
2021/12/07 02:47:34;;;;;;;3.42;0.80;;;;;;;3.62;97.93;98082.78;5064888;28;20089;-66
2021/12/07 02:49:59;;;;;;;5.15;1.00;;;;;;;3.61;98.21;98075.81;5064847;28;20347;-66
2021/12/07 02:52:25;;;;;;;2.47;1.02;;;;;;;3.60;98.81;98083.63;5064815;28;20021;-66
2021/12/07 02:54:50;;;;;;;1.30;0.90;;;;;;;3.58;98.76;98085.38;5064748;28;20031;-66
2021/12/07 02:57:18;;;;;;;2.60;1.10;;;;;;;3.59;98.96;98081.91;5064672;28;20021;-66
2021/12/07 02:59:51;;;;;;;8.63;1.50;;;;;;;3.49;98.06;98091.47;5064519;28;20028;-66
2021/12/07 03:02:18;;;;;;;5.13;1.33;;;;;;;3.39;98.59;98094.91;5064626;28;20212;-66
2021/12/07 03:05:01;;;;;;;2.97;1.27;;;;;;;3.35;98.19;98093.19;5064392;28;20027;-66
2021/12/07 03:07:51;;;;;;;3.50;1.30;;;;;;;3.38;99.02;98097.50;5064393;28;20024;-66
2021/12/07 03:26:45;;;;;;;5.95;2.90;;;;;;;3.77;100.00;98124.38;5064084;28;20023;-66
2021/12/07 03:29:11;;;;;;;8.00;3.85;;;;;;;3.85;100.00;98117.44;5064251;28;20021;-66
2021/12/07 03:31:36;;;;;;;8.80;3.85;;;;;;;3.88;100.00;98122.66;5064083;28;20017;-66
2021/12/07 03:34:02;;;;;;;10.48;4.13;;;;;;;3.90;100.00;98126.09;5064265;28;20017;-66
2021/12/07 03:36:28;;;;;;;9.57;4.20;;;;;;;3.87;100.00;98126.13;5064048;28;20084;-66
2021/12/07 03:38:54;;;;;;;10.38;4.07;;;;;;;3.97;100.00;98133.06;5064000;28;20041;-66
2021/12/07 03:41:21;;;;;;;9.77;4.20;;;;;;;4.01;100.00;98140.00;5064098;28;20021;-66
2021/12/07 03:43:47;;;;;;;12.32;4.05;;;;;;;4.12;100.00;98142.59;5063870;28;20021;-66
2021/12/07 03:46:14;;;;;;;9.10;4.25;;;;;;;4.13;100.00;98145.19;5064150;28;20205;-66
2021/12/07 03:48:41;;;;;;;8.20;3.90;;;;;;;4.14;100.00;98152.13;5063776;28;20032;-66
2021/12/07 03:51:07;;;;;;;12.10;3.95;;;;;;;4.17;100.00;98157.31;5064008;28;20038;-66
2021/12/07 03:53:34;;;;;;;10.82;3.70;;;;;;;4.17;100.00;98167.72;5063849;28;20325;-66
2021/12/07 03:56:00;;;;;;;13.90;4.20;;;;;;;4.16;100.00;98171.22;5063330;28;20025;-66
2021/12/07 03:58:25;;;;;;;12.65;3.83;;;;;;;4.19;100.00;98168.63;5063721;28;20033;-66
2021/12/07 04:00:51;;;;;;;9.95;3.53;;;;;;;4.22;100.00;98163.41;5063503;28;20280;-66
2021/12/07 04:03:18;;;;;;;16.67;4.03;;;;;;;4.28;100.00;98165.13;5063609;28;20332;-66
2021/12/07 04:05:49;;;;;;;8.15;3.10;;;;;;;4.30;100.00;98185.06;5063782;28;20017;-66
2021/12/07 04:08:18;;;;;;;11.73;4.00;;;;;;;4.29;100.00;98183.34;5063815;28;20024;-66
2021/12/07 04:10:44;;;;;;;13.88;3.33;;;;;;;4.31;100.00;98192.00;5063700;28;20224;-66
2021/12/07 04:13:10;;;;;;;13.07;3.22;;;;;;;4.35;100.00;98198.09;5063756;28;20023;-66
2021/12/07 04:15:35;;;;;;;9.02;2.88;;;;;;;4.28;99.80;98197.22;5063193;28;20020;-66
2021/12/07 04:18:01;;;;;;;13.38;3.42;;;;;;;4.33;99.75;98195.50;5063319;28;20067;-66
2021/12/07 04:20:28;;;;;;;11.30;3.28;;;;;;;4.28;99.73;98206.78;5063244;28;20055;-66
2021/12/07 04:22:54;;;;;;;14.77;3.20;;;;;;;4.28;99.18;98202.44;5063466;28;20036;-66
2021/12/07 04:25:19;;;;;;;19.60;3.03;;;;;;;4.37;98.97;98212.00;5063725;28;20088;-66
2021/12/07 04:27:45;;;;;;;10.32;3.35;;;;;;;4.38;99.30;98209.38;5063296;28;20092;-66
2021/12/07 04:30:18;;;;;;;10.55;2.90;;;;;;;4.33;99.08;98210.25;5063646;28;20048;-66
2021/12/07 04:32:44;;;;;;;6.50;2.15;;;;;;;4.31;99.28;98212.84;5063270;28;20199;-66
2021/12/07 04:35:11;;;;;;;8.60;2.42;;;;;;;4.26;98.95;98219.81;5063341;28;20136;-66
2021/12/07 04:37:36;;;;;;;14.50;2.75;;;;;;;4.26;98.38;98224.16;5063031;28;20035;-66
2021/12/07 04:40:04;;;;;;;14.82;2.53;;;;;;;4.28;98.38;98218.06;5062122;28;20017;-67
2021/12/07 04:42:29;;;;;;;9.23;2.47;;;;;;;4.28;98.27;98225.88;5063394;28;20028;-67
2021/12/07 04:44:59;;;;;;;13.85;2.45;;;;;;;4.30;97.47;98226.75;5062153;28;20020;-67
2021/12/07 04:47:36;;;;;;;14.15;2.60;;;;;;;4.24;97.68;98231.97;5062607;28;20029;-67
2021/12/07 04:50:40;;;;;;;8.27;2.38;;;;;;;4.26;97.31;98229.34;5062574;28;20317;-66
2021/12/07 04:58:17;;;;;;;14.75;2.67;;;;;;;4.16;97.65;98228.50;5062137;28;20390;-66
2021/12/07 05:00:43;;;;;;;9.35;2.33;;;;;;;4.19;97.50;98233.72;5061766;28;20029;-66
2021/12/07 05:03:12;;;;;;;10.15;2.25;;;;;;;4.24;97.19;98237.19;5062375;28;20074;-67
2021/12/07 05:05:44;;;;;;;16.92;2.45;;;;;;;4.22;97.88;98236.31;5062409;28;20407;-67
2021/12/07 05:08:13;;;;;;;9.18;2.65;;;;;;;4.23;97.74;98245.88;5062358;28;20021;-67
2021/12/07 05:11:11;;;;;;;9.73;2.45;;;;;;;4.25;97.08;98259.72;5064940;28;20032;-67
2021/12/07 05:13:33;;;;;;;11.05;2.72;;;;;;;4.20;98.12;98256.28;5065963;28;20082;-67
2021/12/07 05:24:03;;;;;;;10.30;2.67;;;;;;;4.22;98.07;98280.59;5065555;28;20213;-67
2021/12/07 05:39:59;;;;;;;11.68;2.60;;;;;;;4.24;97.92;98314.47;5065637;28;20212;-67
2021/12/07 05:42:25;;;;;;;17.42;2.75;;;;;;;4.27;97.81;98320.53;5065564;28;20078;-67
2021/12/07 05:44:53;;;;;;;8.23;2.17;;;;;;;4.24;97.87;98320.53;5065523;28;20313;-67
2021/12/07 05:47:18;;;;;;;12.00;3.17;;;;;;;4.24;97.77;98320.53;5060502;28;20097;-67
2021/12/07 05:49:44;;;;;;;12.55;2.05;;;;;;;4.20;98.09;98310.97;5045083;28;20033;-67
2021/12/07 05:52:09;;;;;;;13.27;2.75;;;;;;;4.20;97.93;98312.69;5045653;28;20028;-68
2021/12/07 05:54:35;;;;;;;14.32;2.95;;;;;;;4.11;97.77;98328.31;5045378;28;20021;-68
2021/12/07 05:57:01;;;;;;;6.55;2.40;;;;;;;4.12;97.83;98319.66;5045331;28;20029;-68
2021/12/07 05:59:26;;;;;;;12.02;2.55;;;;;;;4.08;98.54;98334.41;5045583;28;20187;-68
2021/12/07 06:01:52;;;;;;;9.65;3.10;;;;;;;4.07;98.25;98319.66;5045815;28;20024;-68
2021/12/07 06:04:17;;;;;;;12.20;2.58;;;;;;;4.08;97.77;98329.19;5044736;28;20021;-68
2021/12/07 06:06:43;;;;;;;6.35;2.25;;;;;;;4.08;97.50;98329.19;5045183;28;20036;-68
2021/12/07 06:09:08;;;;;;;10.18;2.13;;;;;;;4.07;97.54;98324.88;5045126;28;20029;-68
2021/12/07 06:11:33;;;;;;;10.50;2.42;;;;;;;4.04;97.71;98331.78;5045006;28;20028;-68
2021/12/07 06:13:59;;;;;;;6.88;2.45;;;;;;;4.05;97.62;98323.97;5045263;28;20036;-68
2021/12/07 06:16:29;;;;;;;11.32;2.75;;;;;;;4.00;97.57;98333.53;5044563;28;20048;-68
2021/12/07 06:18:55;;;;;;;11.73;2.53;;;;;;;4.02;97.32;98323.97;5044631;28;20264;-68
2021/12/07 06:21:20;;;;;;;16.42;3.17;;;;;;;3.98;97.70;98327.44;5044863;28;20057;-68
2021/12/07 06:23:46;;;;;;;9.52;2.47;;;;;;;3.98;97.38;98340.47;5044863;28;20030;-68
2021/12/07 06:26:11;;;;;;;13.75;2.30;;;;;;;4.03;97.56;98343.97;5044799;28;20376;-68
2021/12/07 06:28:36;;;;;;;18.40;3.38;;;;;;;4.04;97.50;98347.41;5044349;28;20089;-68
2021/12/07 06:31:02;;;;;;;14.23;2.50;;;;;;;3.98;97.65;98353.50;5044716;28;20082;-68
2021/12/07 06:33:27;;;;;;;6.88;2.30;;;;;;;4.01;97.35;98356.09;5044601;28;20029;-68
2021/12/07 06:35:57;;;;;;;20.80;3.00;;;;;;;3.99;97.16;98350.00;5044655;28;20034;-68
2021/12/07 06:38:29;;;;;;;18.90;2.90;;;;;;;4.02;96.99;98343.97;5044570;28;20032;-68
2021/12/07 06:40:55;;;;;;;13.75;2.67;;;;;;;4.05;96.47;98350.03;5044555;28;20092;-68
2021/12/07 06:43:21;;;;;;;12.30;4.00;;;;;;;3.96;96.84;98356.97;5044050;28;20021;-68
2021/12/07 06:45:47;;;;;;;11.13;2.80;;;;;;;3.96;97.22;98359.56;5044450;28;20059;-68
2021/12/07 06:48:13;;;;;;;21.17;3.20;;;;;;;3.96;96.45;98355.22;5044375;28;20088;-68
2021/12/07 06:50:39;;;;;;;11.90;2.55;;;;;;;3.93;96.71;98365.59;5044349;28;20026;-68
2021/12/07 06:53:05;;;;;;;13.57;2.70;;;;;;;3.85;96.62;98369.94;5044206;28;20332;-68
2021/12/07 06:55:30;;;;;;;14.55;3.85;;;;;;;3.79;96.58;98377.72;5043858;28;20021;-68
2021/12/07 06:57:56;;;;;;;12.27;2.42;;;;;;;3.82;96.94;98388.16;5044170;28;20025;-68
2021/12/07 07:00:23;;;;;;;17.30;2.92;;;;;;;3.71;96.66;98379.47;5044151;28;20033;-68
2021/12/07 07:02:48;;;;;;;10.23;2.78;;;;;;;3.70;97.05;98385.50;5044124;28;20052;-68
2021/12/07 07:05:15;;;;;;;11.93;2.35;;;;;;;3.68;97.35;98386.38;5044021;28;20033;-68
2021/12/07 07:07:42;;;;;;;15.32;2.72;;;;;;;3.67;97.20;98385.50;5043778;28;20256;-68
2021/12/07 07:10:10;;;;;;;14.60;2.55;;;;;;;3.70;97.34;98395.91;5043872;28;20048;-68
2021/12/07 07:12:36;;;;;;;8.10;2.28;;;;;;;3.70;97.65;98393.31;5043787;28;20036;-67
2021/12/07 07:15:02;;;;;;;13.75;2.83;;;;;;;3.68;97.57;98395.06;5043878;28;20222;-67
2021/12/07 07:17:27;;;;;;;14.73;2.35;;;;;;;3.72;97.62;98394.19;5043849;28;20091;-67
2021/12/07 07:19:53;;;;;;;16.63;2.75;;;;;;;3.68;97.43;98399.38;5043760;28;20021;-67
2021/12/07 07:22:18;;;;;;;17.73;2.90;;;;;;;3.63;96.94;98407.16;5043342;28;20185;-67
2021/12/07 07:24:45;;;;;;;8.73;2.28;;;;;;;3.60;97.75;98401.06;5043706;28;20029;-67
2021/12/07 07:27:10;;;;;;;12.15;2.63;;;;;;;3.64;97.28;98411.50;5043701;28;20025;-68
2021/12/07 07:29:36;;;;;;;16.67;2.85;;;;;;;3.65;97.22;98410.66;5043630;28;20100;-68
2021/12/07 07:32:02;;;;;;;15.13;2.75;;;;;;;3.62;96.97;98409.75;5042929;28;20036;-68
2021/12/07 07:34:27;;;;;;;12.88;2.47;;;;;;;3.63;96.99;98411.50;5043110;28;20333;-68
2021/12/07 07:36:53;;;;;;;12.88;2.17;;;;;;;3.59;96.71;98409.75;5043496;28;20021;-68
2021/12/07 07:39:19;;;;;;;12.52;2.53;;;;;;;3.51;97.02;98421.88;5043405;28;20032;-68
2021/12/07 07:41:44;;;;;;;10.68;2.63;;;;;;;3.52;97.84;98419.28;5043415;28;20097;-68
2021/12/07 07:44:10;;;;;;;11.25;2.20;;;;;;;3.49;97.41;98424.47;5043381;28;20032;-68
2021/12/07 07:46:35;;;;;;;18.75;3.35;;;;;;;3.51;97.77;98427.94;5043349;28;20025;-68
2021/12/07 07:49:01;;;;;;;9.38;2.25;;;;;;;3.53;97.72;98425.34;5042923;28;20033;-68
2021/12/07 07:51:26;;;;;;;12.32;3.17;;;;;;;3.58;97.25;98426.25;5043193;28;20021;-68
2021/12/07 07:53:54;;;;;;;16.85;3.92;;;;;;;3.52;97.31;98424.47;5043203;28;20080;-68
2021/12/07 07:56:20;;;;;;;13.57;3.05;;;;;;;3.52;97.16;98421.88;5043186;28;20021;-68
2021/12/07 07:58:45;;;;;;;20.45;2.83;;;;;;;3.53;97.59;98426.22;5043168;28;20032;-68
2021/12/07 08:01:11;;;;;;;11.13;2.30;;;;;;;3.46;97.18;98429.66;5047468;28;20017;-68
2021/12/07 08:03:36;;;;;;;17.25;2.95;;;;;;;3.51;97.21;98421.88;5051803;28;20022;-68
2021/12/07 08:06:02;;;;;;;16.63;2.30;;;;;;;3.48;97.30;98422.69;5053529;28;20037;-67
2021/12/07 08:08:27;;;;;;;10.18;2.55;;;;;;;3.49;97.71;98432.28;5053656;28;20020;-68
2021/12/07 08:10:53;;;;;;;21.40;3.03;;;;;;;3.44;97.53;98426.16;5052065;28;20025;-68
2021/12/07 08:13:19;;;;;;;10.25;2.42;;;;;;;3.47;97.24;98423.56;5048513;28;20087;-68
2021/12/07 08:15:46;;;;;;;19.08;3.40;;;;;;;3.53;97.16;98423.63;5056309;28;20029;-68
2021/12/07 08:18:12;;;;;;;13.88;3.30;;;;;;;3.61;97.57;98431.47;5050741;28;20044;-68
2021/12/07 08:20:39;;;;;;;22.85;3.60;;;;;;;3.58;96.92;98428.84;5053471;28;20062;-68
2021/12/07 08:23:06;;;;;;;12.63;2.78;;;;;;;3.60;97.18;98432.28;5052508;28;20338;-68
2021/12/07 08:25:39;;;;;;;6.90;2.42;;;;;;;4.13;96.29;98441.19;5057103;28;20029;-68
2021/12/07 08:28:11;;;;;;;16.15;3.22;;;;;;;4.74;94.75;98457.81;5062455;28;20025;-68
2021/12/07 08:30:38;;;;;;;13.15;2.80;;;;;;;4.56;93.45;98442.16;5063082;28;20248;-68
2021/12/07 08:33:04;;;;;;;14.88;3.10;;;;;;;5.43;91.81;98447.31;5062677;28;20032;-68
2021/12/07 08:35:29;;;;;;;11.82;2.63;;;;;;;6.15;89.34;98452.31;5062704;28;20025;-68
2021/12/07 08:37:55;;;;;;;11.90;2.45;;;;;;;6.11;87.49;98450.59;5062710;28;20087;-68
2021/12/07 08:40:23;;;;;;;16.08;2.95;;;;;;;5.65;88.78;98448.97;5062272;28;20028;-68
2021/12/07 08:42:50;;;;;;;18.00;2.97;;;;;;;6.41;86.61;98450.41;5062670;28;20047;-68
2021/12/07 08:45:16;;;;;;;10.15;2.83;;;;;;;7.06;85.19;98449.94;5066646;28;20025;-68
2021/12/07 08:47:42;;;;;;;15.80;3.42;;;;;;;7.14;83.53;98458.59;5064188;28;20060;-68
2021/12/07 08:50:13;;;;;;;17.23;3.00;;;;;;;7.34;82.72;98461.91;5060136;28;20029;-68
2021/12/07 08:52:39;;;;;;;12.10;2.70;;;;;;;7.77;82.07;98460.59;5067369;28;20217;-68
2021/12/07 09:00:27;;;;;;;11.45;2.30;;;;;;;7.97;80.31;98467.31;5065777;28;20031;-68
2021/12/07 09:02:53;;;;;;;11.50;2.53;;;;;;;7.71;80.87;98461.53;5066246;28;20021;-68
2021/12/07 09:05:18;;;;;;;11.93;2.40;;;;;;;8.01;80.18;98463.78;5069144;28;20029;-68
2021/12/07 09:07:46;;;;;;;14.88;2.97;;;;;;;8.09;80.08;98464.56;5065943;28;20031;-68
2021/12/07 09:10:12;;;;;;;17.27;3.25;;;;;;;8.49;78.26;98464.94;5066437;28;20025;-68
2021/12/07 09:12:38;;;;;;;16.35;3.10;;;;;;;8.73;78.01;98461.97;5066094;28;20025;-68
2021/12/07 09:15:04;;;;;;;9.35;2.78;;;;;;;8.90;76.56;98446.84;5066069;28;20251;-68
2021/12/07 09:17:29;;;;;;;12.18;2.72;;;;;;;8.58;77.18;98449.94;5065528;28;20044;-68
2021/12/07 09:19:55;;;;;;;17.35;3.05;;;;;;;8.97;76.04;98458.09;5065131;28;20025;-68
2021/12/07 09:22:21;;;;;;;14.25;3.20;;;;;;;8.71;76.26;98450.66;5069030;28;20017;-68
2021/12/07 09:24:46;;;;;;;11.13;3.05;;;;;;;8.52;77.83;98459.66;5065798;28;20321;-68
2021/12/07 09:27:12;;;;;;;12.70;2.70;;;;;;;8.23;77.80;98457.41;5066127;28;20339;-68
2021/12/07 09:29:37;;;;;;;20.15;3.28;;;;;;;8.03;79.16;98454.16;5065706;28;20029;-68
2021/12/07 09:32:04;;;;;;;14.55;3.60;;;;;;;7.43;80.52;98454.81;5063015;28;20040;-68
2021/12/07 09:34:29;;;;;;;8.10;2.55;;;;;;;7.28;82.04;98449.72;5064968;28;20359;-68
2021/12/07 09:36:54;;;;;;;15.55;3.35;;;;;;;6.98;83.07;98444.78;5064817;28;20059;-68
2021/12/07 09:39:20;;;;;;;19.83;3.63;;;;;;;6.77;84.85;98444.94;5064584;28;20033;-67
2021/12/07 09:41:47;;;;;;;19.35;3.53;;;;;;;6.57;85.73;98441.59;5065520;28;20032;-68
2021/12/07 09:44:12;;;;;;;19.38;3.40;;;;;;;6.40;86.32;98438.25;5065525;28;20084;-68
2021/12/07 09:46:40;;;;;;;16.33;3.22;;;;;;;6.36;87.07;98447.81;5065081;28;20036;-68
2021/12/07 09:49:07;;;;;;;18.23;3.25;;;;;;;6.22;87.69;98438.34;5065699;28;20248;-67
2021/12/07 09:51:33;;;;;;;22.15;3.80;;;;;;;6.07;87.87;98433.19;5065579;28;20035;-68
2021/12/07 09:53:59;;;;;;;11.95;3.33;;;;;;;5.94;88.34;98431.50;5064756;28;20024;-68
2021/12/07 09:56:26;;;;;;;16.95;3.67;;;;;;;5.73;89.14;98427.19;5068159;28;20049;-68
2021/12/07 09:58:54;;;;;;;20.60;3.65;;;;;;;5.77;89.17;98420.22;5064434;28;20033;-68
2021/12/07 10:01:20;;;;;;;15.93;4.57;;;;;;;5.66;89.77;98414.19;5065172;28;20216;-67
2021/12/07 10:03:46;;;;;;;19.63;3.72;;;;;;;5.66;90.08;98411.59;5063578;28;20013;-68
2021/12/07 10:06:12;;;;;;;11.68;3.55;;;;;;;5.67;89.82;98413.31;5064607;28;20033;-68
2021/12/07 10:08:38;;;;;;;14.00;3.60;;;;;;;5.62;89.94;98423.78;5064875;28;20190;-68
2021/12/07 10:11:08;;;;;;;13.65;3.53;;;;;;;5.75;90.80;98424.56;5064592;28;20032;-68
2021/12/07 10:13:34;;;;;;;12.40;3.72;;;;;;;5.80;90.32;98430.66;5064819;28;20082;-68
2021/12/07 10:16:03;;;;;;;11.05;3.78;;;;;;;5.82;91.83;98434.19;5064971;28;20021;-68
2021/12/07 10:18:31;;;;;;;23.08;3.90;;;;;;;5.81;91.34;98429.78;5064768;28;20047;-68
2021/12/07 10:21:09;;;;;;;19.90;4.43;;;;;;;5.82;91.00;98416.75;5064738;28;20021;-68
2021/12/07 10:23:38;;;;;;;20.92;4.18;;;;;;;5.93;90.72;98424.53;5059533;28;20229;-68
2021/12/07 10:26:10;;;;;;;17.33;4.35;;;;;;;5.83;90.69;98412.41;5055222;28;20062;-67
2021/12/07 10:28:39;;;;;;;10.75;3.55;;;;;;;5.97;90.81;98415.81;5050190;28;20252;-68
2021/12/07 10:31:15;;;;;;;17.25;3.92;;;;;;;6.00;90.91;98407.97;5053460;28;20025;-68
2021/12/07 10:33:45;;;;;;;19.55;4.35;;;;;;;5.91;92.09;98385.38;5052606;28;20025;-68
2021/12/07 10:36:20;;;;;;;17.10;3.35;;;;;;;5.74;92.11;98386.28;5050777;28;20022;-68
2021/12/07 10:38:53;;;;;;;24.38;4.07;;;;;;;5.85;92.44;98389.75;5061181;28;20319;-68
2021/12/07 10:41:22;;;;;;;15.65;3.45;;;;;;;5.94;92.34;98389.72;5055529;28;20090;-68
2021/12/07 10:44:02;;;;;;;10.40;2.80;;;;;;;6.11;91.81;98388.75;5058317;28;20029;-68
2021/12/07 10:46:35;;;;;;;14.43;3.70;;;;;;;6.37;91.63;98396.44;5064206;28;20036;-68
2021/12/07 10:49:13;;;;;;;17.88;3.40;;;;;;;6.46;91.59;98396.38;5064325;28;20029;-68
2021/12/07 10:51:40;;;;;;;19.95;3.80;;;;;;;6.48;90.17;98389.38;5063906;28;20247;-68
2021/12/07 10:54:06;;;;;;;15.55;3.63;;;;;;;6.47;89.97;98393.75;5064227;28;20024;-68
2021/12/07 10:56:35;;;;;;;14.90;3.80;;;;;;;6.53;89.50;98372.78;5064230;28;20198;-68
2021/12/07 10:59:09;;;;;;;14.73;3.03;;;;;;;6.56;89.53;98377.13;5064141;28;20347;-68
2021/12/07 11:01:43;;;;;;;15.15;3.22;;;;;;;6.33;89.59;98358.13;5061162;28;20025;-68
2021/12/07 11:04:29;;;;;;;10.77;2.85;;;;;;;6.30;89.44;98350.31;5052192;28;20209;-68
2021/12/07 11:07:05;;;;;;;11.00;2.60;;;;;;;6.53;90.31;98351.88;5050983;28;20017;-67
2021/12/07 11:10:22;;;;;;;15.93;4.05;;;;;;;6.63;89.99;98345.69;5054877;28;20304;-68
2021/12/07 11:12:54;;;;;;;19.42;3.05;;;;;;;6.81;88.97;98335.94;5047850;28;20115;-68
2021/12/07 11:15:25;;;;;;;15.65;3.45;;;;;;;6.70;87.46;98328.19;5058141;28;20029;-68
2021/12/07 11:18:08;;;;;;;15.80;3.03;;;;;;;6.82;88.24;98327.19;5046087;28;20109;-67
2021/12/07 11:20:34;;;;;;;;;;;;;;;6.99;87.10;98320.06;5049665;28;20033;-68
2021/12/07 11:23:06;;;;;;;14.02;3.03;;;;;;;6.83;85.71;98314.09;5059147;28;19958;-68
2021/12/07 11:29:39;;;;;;;13.30;2.15;;;;;;;6.80;87.59;98302.81;5054385;28;20020;-68
2021/12/07 11:31:33;;;;;;;9.40;1.95;;;;;;;6.96;85.75;98307.88;5043363;28;20132;-68
2021/12/07 11:34:15;;;;;;;15.60;2.63;;;;;;;6.84;86.35;98305.41;5043567;28;20025;-68
2021/12/07 11:36:45;;;;;;;14.48;3.00;;;;;;;6.84;86.99;98284.47;5043560;28;20025;-68
2021/12/07 11:39:31;;;;;;;18.10;3.97;;;;;;;6.71;86.98;98288.09;5043466;28;20029;-68
2021/12/07 11:42:16;;;;;;;10.90;2.45;;;;;;;6.69;87.75;98279.38;5043418;28;20021;-68
2021/12/07 11:45:02;;;;;;;16.15;2.70;;;;;;;6.64;88.47;98273.31;5060947;28;20071;-68
2021/12/07 11:47:29;;;;;;;12.95;2.22;;;;;;;6.52;87.62;98270.84;5059973;28;20032;-68
2021/12/07 11:50:01;;;;;;;13.43;2.53;;;;;;;6.50;87.87;98267.38;5062458;28;20052;-68
2021/12/07 11:52:27;;;;;;;15.10;2.92;;;;;;;6.49;88.89;98270.88;5063069;28;20084;-67
2021/12/07 11:54:53;;;;;;;8.45;2.50;;;;;;;6.46;88.86;98260.44;5063122;28;20078;-68
2021/12/07 11:57:20;;;;;;;15.10;3.10;;;;;;;6.43;89.18;98245.63;5062680;28;20024;-68
2021/12/07 11:59:48;;;;;;;7.80;2.10;;;;;;;6.49;89.43;98245.56;5063264;28;20020;-68
2021/12/07 12:02:15;;;;;;;11.40;2.78;;;;;;;6.44;89.07;98250.00;5063056;28;20307;-68
2021/12/07 12:04:42;;;;;;;14.35;2.65;;;;;;;6.53;88.76;98246.44;5062935;28;20092;-67
2021/12/07 12:07:09;;;;;;;14.35;2.25;;;;;;;6.71;88.72;98246.25;5063004;28;20055;-68
2021/12/07 12:09:43;;;;;;;19.35;2.88;;;;;;;6.71;87.66;98246.25;5062565;28;20193;-68
2021/12/07 12:12:30;;;;;;;12.32;2.40;;;;;;;6.88;87.86;98236.47;5062814;28;20028;-67
2021/12/07 12:15:02;;;;;;;11.07;3.05;;;;;;;6.96;87.49;98234.59;5062928;28;20056;-68
2021/12/07 12:17:33;;;;;;;24.20;3.97;;;;;;;6.95;86.22;98234.63;5062444;28;20041;-71
2021/12/07 12:20:10;;;;;;;16.98;2.78;;;;;;;6.92;86.14;98232.94;5062675;28;20025;-68
2021/12/07 12:22:42;;;;;;;15.75;3.03;;;;;;;6.90;86.83;98221.63;5062473;28;20024;-68
2021/12/07 12:25:11;;;;;;;17.38;3.03;;;;;;;6.72;86.76;98213.97;5063143;28;20021;-68
2021/12/07 12:27:37;;;;;;;19.23;3.35;;;;;;;6.90;86.73;98220.75;5062780;28;20149;-68
2021/12/07 12:30:23;;;;;;;12.73;3.15;;;;;;;6.71;86.20;98220.09;5062790;28;20025;-68
2021/12/07 12:32:54;;;;;;;11.85;2.42;;;;;;;6.72;86.69;98203.53;5062695;28;20193;-68
2021/12/07 12:35:32;;;;;;;13.65;2.70;;;;;;;6.78;86.49;98198.22;5062298;28;20025;-68
2021/12/07 12:37:58;;;;;;;15.23;2.97;;;;;;;6.82;86.85;98186.84;5062713;28;20031;-68
2021/12/07 12:40:28;;;;;;;13.98;2.70;;;;;;;6.80;86.78;98178.13;5062677;28;20024;-68
2021/12/07 12:42:57;;;;;;;19.00;3.20;;;;;;;6.62;86.54;98173.13;5062692;28;20044;-68
2021/12/07 12:45:34;;;;;;;11.05;2.28;;;;;;;6.38;86.15;98168.16;5062639;28;20016;-68
2021/12/07 12:48:06;;;;;;;19.20;2.92;;;;;;;6.18;87.42;98164.88;5062223;28;20025;-68
2021/12/07 12:50:46;;;;;;;10.95;2.22;;;;;;;6.10;87.47;98151.00;5062590;28;20025;-68
2021/12/07 12:53:17;;;;;;;7.57;2.53;;;;;;;6.13;87.94;98158.81;5062794;28;20029;-68
2021/12/07 12:56:18;;;;;;;15.90;2.80;;;;;;;6.20;87.49;98147.41;5062565;28;20025;-68
2021/12/07 12:58:55;;;;;;;14.52;3.75;;;;;;;6.27;87.39;98142.13;5054536;28;20048;-68
2021/12/07 13:01:31;;;;;;;15.55;3.30;;;;;;;6.38;87.45;98126.34;5062118;28;20028;-68
2021/12/07 13:03:57;;;;;;;13.82;2.88;;;;;;;6.44;88.22;98115.81;5062399;28;20081;-68
2021/12/07 13:07:06;;;;;;;9.73;2.67;;;;;;;6.53;86.93;98110.47;5062716;28;20021;-68
2021/12/07 13:09:41;;;;;;;17.63;3.42;;;;;;;6.56;88.04;98106.06;5062400;28;20024;-68
2021/12/07 13:12:08;;;;;;;13.63;3.00;;;;;;;6.54;87.34;98101.75;5062346;28;20054;-68
2021/12/07 13:14:39;;;;;;;12.57;3.85;;;;;;;6.59;87.43;98105.19;5062169;28;20021;-68
2021/12/07 13:17:25;;;;;;;11.73;2.45;;;;;;;6.59;85.92;98092.13;5062260;28;20072;-68